• Join FlightAware (Why Join?)
  • Login
  • US Flag 
06:36AM EDT


 

Airport Tracker/Info


-or-


 

Live Flight TrackerFlight Track Log ✈ RPA4901 ✈ 26-Apr-2013 ✈ KDEN - KJAC

Flight Track Log - Related Links

Times and Time Zones

All times are in EDT time to prevent confusion due to time zone crossing. See the RPA4901 flight status page for this flight to view local times or setup timezone preferences in your user account.

Time Position Orientation Groundspeed Altitude Reporting Facility
EDT Latitude Longitude Course Direction KTS MPH feet Rate Location/Type
01:39AM 39.8833 -104.5500 343° North 216 249 7,700  Level Denver TRACON
01:40AM 39.9167 -104.4833 57° Northeast 241 277 10,000 2,160 Climbing Denver TRACON
01:41AM 39.9667 -104.4833 360° North 236 272 12,100 2,100 Climbing Denver TRACON
01:43AM 40.0794 -104.5714 329° Northwest 244 281 16,100 1,980 Climbing Denver Center
01:44AM 40.2704 -104.8581 343° North  Level FlightAware Approximate
01:44AM 40.1211 -104.6392 309° West 240 276 17,900  Level Denver Center
01:45AM 40.1639 -104.7078 309° West 245 282 19,100 1,140 Climbing Denver Center
01:46AM 40.2072 -104.7786 309° West 250 288 20,200 1,080 Climbing Denver Center
01:47AM 40.2594 -104.8606 310° West 271 312 21,300 1,020 Climbing Denver Center
01:48AM 40.3072 -104.9406 308° West 280 322 22,300 1,020 Climbing Denver Center
01:49AM 40.3578 -105.0189 310° West 281 323 23,400 840 Climbing Denver Center
01:50AM 40.4081 -105.1006 309° West 287 330 24,000 240 Climbing Denver Center
01:51AM 40.4639 -105.1869 310° West 309 356 24,000  Level Denver Center
01:52AM 40.5161 -105.2717 309° West 320 368 24,000  Level Denver Center
01:53AM 40.5769 -105.3686 310° West 337 388 24,000  Level Denver Center
01:54AM 40.6375 -105.4675 309° West 345 397 24,000  Level Denver Center
01:55AM 40.6967 -105.5653 309° West 339 390 24,000  Level Denver Center
01:56AM 40.7572 -105.6622 310° West 340 391 24,000  Level Denver Center
01:57AM 40.8172 -105.7606 309° West 340 391 24,000  Level Denver Center
01:58AM 40.8778 -105.8592 309° West 343 395 24,000  Level Denver Center
01:59AM 40.9369 -105.9586 308° West 342 394 24,000  Level Denver Center
02:00AM 40.9975 -106.0567 309° West 341 392 24,000  Level Denver Center
02:01AM 41.0597 -106.1589 309° West 343 395 24,000  Level Denver Center
02:02AM 41.1167 -106.2519 309° West 343 395 24,000  Level Denver Center
02:03AM 41.1822 -106.3619 308° West 342 394 24,000  Level Denver Center
02:04AM 41.2386 -106.4561 309° West 343 395 24,000  Level Denver Center
02:05AM 41.2950 -106.5508 308° West 343 395 24,000  Level Denver Center
02:06AM 41.3600 -106.6611 308° West 341 392 24,000  Level Denver Center
02:07AM 41.4153 -106.7547 308° West 337 388 24,000  Level Denver Center
02:08AM 41.4719 -106.8489 309° West 341 392 24,000  Level Denver Center
02:09AM 41.5269 -106.9433 308° West 339 390 24,000  Level Denver Center
02:10AM 41.5936 -107.0556 308° West 343 395 24,000  Level Denver Center
02:11AM 41.6497 -107.1517 308° West 344 396 24,000  Level Denver Center
02:12AM 41.7247 -107.2803 308° West 345 397 24,000  Level Denver Center
02:13AM 41.7811 -107.3772 308° West 346 398 24,000  Level Denver Center
02:14AM 41.8381 -107.4753 308° West 348 400 24,000  Level Denver Center
02:15AM 41.9031 -107.5881 308° West 345 397 24,000  Level Denver Center
02:16AM 41.9478 -107.6694 306° West 343 395 24,000  Level Salt Lake Center
02:17AM 42.0144 -107.7836 308° West 346 398 24,000  Level Salt Lake Center
02:18AM 42.0694 -107.8800 308° West 343 395 24,000  Level Salt Lake Center
02:19AM 42.1247 -107.9769 308° West 345 397 24,000  Level Salt Lake Center
02:20AM 42.1892 -108.0900 308° West 342 394 24,000  Level Salt Lake Center
02:21AM 42.2442 -108.1883 307° West 343 395 24,000  Level Salt Lake Center
02:22AM 42.2994 -108.2861 307° West 345 397 24,000  Level Salt Lake Center
02:23AM 42.3633 -108.3994 307° West 343 395 24,000  Level Salt Lake Center
02:24AM 42.4186 -108.5003 307° West 346 398 24,000  Level Salt Lake Center
02:25AM 42.4725 -108.5969 307° West 340 391 24,000  Level Salt Lake Center
02:26AM 42.5347 -108.7097 307° West 338 389 24,000  Level Salt Lake Center
02:27AM 42.5883 -108.8061 307° West 336 387 24,000  Level Salt Lake Center
02:28AM 42.6358 -108.9072 303° West 334 384 24,000  Level Salt Lake Center
02:29AM 42.6828 -109.0106 302° West 336 387 24,000  Level Salt Lake Center
02:30AM 42.7367 -109.1322 301° West 336 387 24,000  Level Salt Lake Center
02:31AM 42.7822 -109.2347 301° West 333 383 24,000  Level Salt Lake Center
02:32AM 42.8297 -109.3394 302° West 339 390 24,000  Level Salt Lake Center
02:33AM 42.8842 -109.4606 302° West 337 388 24,000  Level Salt Lake Center
02:34AM 42.9303 -109.5644 301° West 335 386 24,000  Level Salt Lake Center
02:35AM 42.9828 -109.6819 301° West 338 389 24,000  Level Salt Lake Center
02:36AM 43.0289 -109.7878 301° West 338 389 24,000  Level Salt Lake Center
02:37AM 43.0808 -109.9044 301° West 336 387 24,000  Level Salt Lake Center
02:38AM 43.1272 -110.0097 301° West 336 387 24,000 -360 Level Salt Lake Center
02:39AM 43.1703 -110.1114 300° West 324 373 23,300 -1,200 Descending Salt Lake Center
02:40AM 43.2139 -110.2103 301° West 318 366 21,700 -1,680 Descending Salt Lake Center
02:41AM 43.2583 -110.3092 302° West 312 359 20,000 -1,740 Descending Salt Lake Center
02:42AM 43.3025 -110.4114 301° West 312 359 18,300 -1,560 Descending Salt Lake Center
02:43AM 43.3436 -110.5081 300° West 294 338 16,900 -1,560 Descending Salt Lake Center
02:44AM 43.3686 -110.6044 290° West 278 320 15,200 -1,560 Descending Salt Lake Center
02:45AM 43.3556 -110.7014 260° West 257 296 13,800 -1,320 Descending Salt Lake Center
02:46AM 43.3564 -110.7889 271° West 232 267 12,600 -1,320 Descending Salt Lake Center
02:47AM 43.3886 -110.8572 303° West 228 262 11,200 -1,200 Descending Salt Lake Center
02:48AM 43.4372 -110.8325 20° North 198 228 10,200 -1,020 Descending Salt Lake Center
02:49AM 43.4814 -110.8056 24° Northeast 185 213 9,200 -960 Descending Salt Lake Center
02:50AM 43.5192 -110.7869 20° North 164 189 8,300 -900 Descending Salt Lake Center
02:51AM 43.5536 -110.7672 23° Northeast 147 169 7,500 -840 Descending Salt Lake Center
02:52AM 43.5878 -110.7467 24° Northeast 139 160 6,700 -840 Descending Salt Lake Center